createdAt,value
2023-05-19T00:03:34.167Z,2.10
2023-05-19T00:08:39.887Z,2.10
2023-05-19T00:13:44.205Z,2.10
2023-05-19T00:18:47.872Z,2.30
2023-05-19T00:23:53.220Z,2.20
2023-05-19T00:28:56.922Z,2.20
2023-05-19T00:34:00.611Z,2.00
2023-05-19T00:39:06.964Z,2.35
2023-05-19T00:44:10.664Z,2.13
2023-05-19T00:49:14.380Z,2.20
2023-05-19T00:54:21.357Z,2.00
2023-05-19T00:59:25.831Z,2.20
2023-05-19T01:04:29.766Z,1.77
2023-05-19T01:09:35.167Z,2.27
2023-05-19T01:14:39.109Z,2.53
2023-05-19T01:20:01.722Z,2.17
2023-05-19T01:25:40.976Z,1.98
2023-05-19T01:30:49.486Z,2.20
2023-05-19T01:35:54.815Z,2.10
2023-05-19T01:40:59.137Z,2.33
2023-05-19T01:46:04.624Z,2.13
2023-05-19T01:51:08.330Z,2.25
2023-05-19T01:56:13.353Z,2.38
2023-05-19T02:01:29.661Z,2.00
2023-05-19T02:06:42.524Z,2.00
2023-05-19T02:11:55.438Z,2.00
2023-05-19T02:17:02.332Z,1.95
2023-05-19T02:22:06.433Z,2.20
2023-05-19T02:27:10.071Z,2.17
2023-05-19T02:32:16.606Z,2.10
2023-05-19T02:37:20.406Z,2.10
2023-05-19T02:42:24.119Z,2.30
2023-05-19T02:47:29.464Z,3.42
2023-05-19T02:52:33.124Z,3.20
2023-05-19T02:57:36.808Z,3.58
2023-05-19T03:02:42.190Z,3.22
2023-05-19T03:07:45.940Z,3.70
2023-05-19T03:12:49.620Z,4.00
2023-05-19T03:17:55.907Z,3.63
2023-05-19T03:22:59.651Z,3.95
2023-05-19T03:28:03.337Z,3.80
2023-05-19T03:33:08.735Z,3.83
2023-05-19T03:38:12.500Z,4.40
2023-05-19T03:43:16.446Z,3.95
2023-05-19T03:48:21.786Z,4.18
2023-05-19T03:58:28.321Z,4.20
2023-05-19T04:03:34.726Z,3.90
2023-05-19T04:08:38.429Z,3.75
2023-05-19T04:13:42.032Z,4.07
2023-05-19T04:18:47.429Z,3.75
2023-05-19T04:28:54.183Z,3.80
2023-05-19T04:33:59.557Z,4.03
2023-05-19T04:39:03.382Z,3.75
2023-05-19T04:44:07.212Z,3.65
2023-05-19T04:49:12.554Z,3.88
2023-05-19T04:54:16.269Z,3.65
2023-05-19T04:59:19.918Z,3.95
2023-05-19T05:04:25.428Z,4.05
2023-05-19T05:09:29.094Z,4.45
2023-05-19T05:14:33.354Z,3.45
2023-05-19T05:19:39.574Z,3.72
2023-05-19T05:24:43.852Z,4.05
2023-05-19T05:29:47.666Z,3.65
2023-05-19T05:34:53.196Z,3.60
2023-05-19T05:39:56.876Z,3.70
2023-05-19T05:45:00.511Z,3.50
2023-05-19T05:50:07.121Z,3.88
2023-05-19T05:55:12.131Z,3.88
2023-05-19T06:00:16.565Z,4.33
2023-05-19T06:05:22.151Z,3.90
2023-05-19T06:10:25.850Z,3.97
2023-05-19T06:15:30.192Z,4.13
2023-05-19T06:20:36.128Z,3.85
2023-05-19T06:25:39.898Z,3.70
2023-05-19T06:30:43.570Z,4.25
2023-05-19T06:35:48.894Z,3.80
2023-05-19T06:40:52.553Z,4.70
2023-05-19T06:45:56.198Z,3.72
2023-05-19T06:51:01.550Z,4.00
2023-05-19T06:56:05.436Z,3.92
2023-05-19T07:01:09.194Z,4.20
2023-05-19T07:06:14.666Z,4.22
2023-05-19T07:11:18.302Z,4.40
2023-05-19T07:16:22.056Z,3.75
2023-05-19T07:21:28.263Z,4.07
2023-05-19T07:26:31.931Z,4.35
2023-05-19T07:31:35.608Z,4.13
2023-05-19T07:36:41.005Z,3.92
2023-05-19T07:41:44.755Z,3.85
2023-05-19T07:46:48.448Z,3.72
2023-05-19T07:51:54.336Z,3.85
2023-05-19T08:02:00.892Z,4.35
2023-05-19T08:07:06.297Z,4.25
2023-05-19T08:12:09.996Z,4.30
2023-05-19T08:17:13.615Z,4.50
2023-05-19T08:22:18.908Z,4.13
2023-05-19T08:27:22.581Z,4.50
2023-05-19T08:32:26.392Z,4.30
2023-05-19T08:37:33.988Z,4.20
2023-05-19T08:42:37.875Z,4.22
2023-05-19T08:47:43.686Z,4.13
2023-05-19T08:57:57.773Z,4.40
2023-05-19T09:08:12.047Z,4.25
2023-05-19T09:13:15.715Z,4.10
2023-05-19T09:18:19.385Z,3.90
2023-05-19T09:23:24.840Z,4.28
2023-05-19T09:28:29.590Z,3.97
2023-05-19T09:33:35.021Z,3.90
2023-05-19T09:38:40.888Z,3.60
2023-05-19T09:43:44.703Z,4.38
2023-05-19T09:48:48.339Z,4.30
2023-05-19T09:53:54.056Z,4.32
2023-05-19T09:58:57.712Z,3.80
2023-05-19T10:04:03.079Z,3.70
2023-05-19T10:14:12.273Z,3.80
2023-05-19T10:19:16.668Z,4.05
2023-05-19T10:24:22.263Z,3.75
2023-05-19T10:29:32.772Z,3.40
2023-05-19T10:35:08.829Z,3.83
2023-05-19T10:40:22.224Z,3.60
2023-05-19T10:45:31.506Z,3.72
2023-05-19T10:50:37.597Z,3.78
2023-05-19T10:55:52.118Z,4.22
2023-05-19T11:01:02.014Z,3.92
2023-05-19T11:06:19.958Z,3.88
2023-05-19T11:11:25.270Z,3.92
2023-05-19T11:16:29.840Z,3.73
2023-05-19T11:21:49.617Z,4.10
2023-05-19T11:26:56.133Z,3.30
2023-05-19T11:32:00.243Z,3.42
2023-05-19T11:37:04.911Z,3.92
2023-05-19T11:42:10.656Z,4.07
2023-05-19T11:47:14.500Z,3.55
2023-05-19T11:52:18.425Z,3.70
2023-05-19T11:57:23.806Z,3.40
2023-05-19T12:02:27.633Z,3.60
2023-05-19T12:07:32.180Z,3.33
2023-05-19T12:12:38.029Z,3.67
2023-05-19T12:17:41.728Z,3.50
2023-05-19T12:22:45.666Z,3.30
2023-05-19T12:27:51.195Z,3.70
2023-05-19T12:32:56.085Z,3.92
2023-05-19T12:38:04.210Z,3.63
2023-05-19T12:43:09.674Z,3.42
2023-05-19T12:48:13.522Z,3.50
2023-05-19T12:53:17.253Z,3.47
2023-05-19T12:58:22.630Z,3.83
2023-05-19T13:03:26.429Z,3.47
2023-05-19T13:08:30.168Z,3.83
2023-05-19T13:13:35.484Z,3.25
2023-05-19T13:18:39.199Z,3.30
2023-05-19T13:23:42.862Z,3.88
2023-05-19T13:28:48.172Z,3.72
2023-05-19T13:33:51.820Z,3.90
2023-05-19T13:38:55.589Z,3.88
2023-05-19T13:44:01.732Z,3.60
2023-05-19T13:54:08.298Z,3.70
2023-05-19T13:59:13.675Z,3.78
2023-05-19T14:04:19.617Z,3.07
2023-05-19T14:14:28.980Z,3.50
2023-05-19T14:19:32.641Z,3.70
2023-05-19T14:24:36.446Z,3.20
2023-05-19T14:29:42.618Z,3.70
2023-05-19T14:34:46.270Z,3.63
2023-05-19T14:39:50.589Z,3.03
2023-05-19T14:44:55.901Z,3.58
2023-05-19T14:49:59.552Z,3.37
2023-05-19T14:55:03.210Z,2.95
2023-05-19T15:00:09.776Z,3.05
2023-05-19T15:05:13.463Z,2.97
2023-05-19T15:10:17.141Z,2.92
2023-05-19T15:15:22.522Z,2.83
2023-05-19T15:20:28.026Z,2.33
2023-05-19T15:25:33.066Z,2.55
2023-05-19T15:30:38.496Z,2.67
2023-05-19T15:40:45.224Z,2.40
2023-05-19T15:45:50.576Z,2.30
2023-05-19T15:50:54.285Z,2.53
2023-05-19T15:55:57.972Z,2.80
2023-05-19T16:01:03.483Z,2.15
2023-05-19T16:06:07.251Z,2.58
2023-05-19T16:11:10.931Z,2.33
2023-05-19T16:16:16.319Z,2.72
2023-05-19T16:21:20.030Z,2.70
2023-05-19T16:26:23.746Z,2.55
2023-05-19T16:31:29.115Z,2.40
2023-05-19T16:36:32.859Z,2.42
2023-05-19T16:41:36.503Z,2.40
2023-05-19T16:46:41.848Z,2.53
2023-05-19T16:51:46.204Z,2.80
2023-05-19T16:56:51.724Z,3.28
2023-05-19T17:01:57.109Z,2.77
2023-05-19T17:07:00.846Z,3.00
2023-05-19T17:12:04.921Z,3.00
2023-05-19T17:17:10.308Z,3.08
2023-05-19T17:22:14.065Z,4.00
2023-05-19T17:27:17.728Z,3.40
2023-05-19T17:32:23.020Z,3.42
2023-05-19T17:37:26.717Z,3.28
2023-05-19T17:42:30.369Z,3.17
2023-05-19T17:47:35.787Z,3.30
2023-05-19T17:52:40.988Z,3.25
2023-05-19T17:57:46.918Z,3.50
2023-05-19T18:02:53.227Z,3.20
2023-05-19T18:07:58.133Z,4.07
2023-05-19T18:18:06.420Z,3.45
2023-05-19T18:23:10.113Z,3.67
2023-05-19T18:28:13.777Z,3.65
2023-05-19T18:33:19.732Z,3.60
2023-05-19T18:38:23.407Z,3.38
2023-05-19T18:43:27.108Z,3.75
2023-05-19T18:48:32.740Z,3.67
2023-05-19T18:53:36.885Z,3.40
2023-05-19T18:58:40.519Z,3.70
2023-05-19T19:03:46.778Z,3.80
2023-05-19T19:08:50.558Z,3.22
2023-05-19T19:13:54.318Z,3.60
2023-05-19T19:18:59.831Z,4.07
2023-05-19T19:24:03.585Z,3.58
2023-05-19T19:29:07.271Z,4.22
2023-05-19T19:34:12.602Z,3.63
2023-05-19T19:39:16.252Z,3.72
2023-05-19T19:44:19.924Z,3.58
2023-05-19T19:49:25.261Z,4.30
2023-05-19T19:54:28.988Z,3.45
2023-05-19T19:59:32.708Z,3.30
2023-05-19T20:04:38.109Z,3.50
2023-05-19T20:09:41.990Z,2.90
2023-05-19T20:14:45.650Z,3.07
2023-05-19T20:19:51.020Z,3.30
2023-05-19T20:24:54.706Z,3.17
2023-05-19T20:29:58.374Z,3.03
2023-05-19T20:35:04.806Z,3.10
2023-05-19T20:40:09.498Z,2.83
2023-05-19T20:50:17.813Z,3.08
2023-05-19T20:55:21.498Z,3.00
2023-05-19T21:00:25.337Z,3.17
2023-05-19T21:05:30.775Z,3.00
2023-05-19T21:10:34.606Z,3.03
2023-05-19T21:15:38.408Z,3.47
2023-05-19T21:20:43.764Z,2.92
2023-05-19T21:25:47.442Z,3.20
2023-05-19T21:30:51.123Z,3.10
2023-05-19T21:35:57.434Z,3.27
2023-05-19T21:41:01.046Z,2.70
2023-05-19T21:46:04.804Z,2.40
2023-05-19T21:51:10.135Z,2.40
2023-05-19T21:56:13.727Z,2.10
2023-05-19T22:01:17.437Z,2.15
2023-05-19T22:06:23.760Z,2.30
2023-05-19T22:11:27.504Z,2.50
2023-05-19T22:16:31.262Z,2.00
2023-05-19T22:21:36.604Z,2.43
2023-05-19T22:26:40.322Z,2.22
2023-05-19T22:31:43.970Z,2.27
2023-05-19T22:36:49.303Z,2.20
2023-05-19T22:41:52.946Z,2.20
2023-05-19T22:46:56.651Z,2.20
2023-05-19T22:52:01.961Z,2.13
2023-05-19T22:57:06.100Z,2.10
2023-05-19T23:02:09.868Z,2.30
2023-05-19T23:07:15.126Z,2.20
2023-05-19T23:12:18.764Z,2.33
2023-05-19T23:17:22.414Z,2.30
2023-05-19T23:22:27.714Z,2.10
2023-05-19T23:27:31.380Z,2.40
2023-05-19T23:32:35.071Z,1.85
2023-05-19T23:37:40.425Z,1.90
2023-05-19T23:42:44.156Z,2.08
2023-05-19T23:47:47.784Z,2.00
2023-05-19T23:52:53.158Z,2.05
2023-05-19T23:57:56.811Z,1.92
